createdAt,value
2022-08-11T00:01:59.873Z,101096.94
2022-08-11T00:04:34.447Z,101091.41
2022-08-11T00:07:03.065Z,101098.97
2022-08-11T00:09:39.349Z,101094.84
2022-08-11T00:12:13.001Z,101093.34
2022-08-11T00:14:40.851Z,101089.63
2022-08-11T00:17:09.336Z,101084.75
2022-08-11T00:20:15.099Z,101089.56
2022-08-11T00:22:33.105Z,101091.00
2022-08-11T00:25:08.875Z,101090.28
2022-08-11T00:27:37.067Z,101094.72
2022-08-11T00:30:05.668Z,101097.75
2022-08-11T00:32:33.597Z,101105.44
2022-08-11T00:35:53.931Z,101098.75
2022-08-11T00:37:53.296Z,101100.41
2022-08-11T00:40:28.273Z,101093.28
2022-08-11T00:43:01.926Z,101093.88
2022-08-11T00:45:32.657Z,101099.13
2022-08-11T00:48:05.721Z,101100.41
2022-08-11T00:51:05.457Z,101101.00
2022-08-11T00:53:37.180Z,101099.97
2022-08-11T00:56:13.260Z,101090.78
2022-08-11T00:58:53.266Z,101094.53
2022-08-11T01:01:27.594Z,101087.34
2022-08-11T01:04:14.678Z,101097.44
2022-08-11T01:06:41.794Z,101093.22
2022-08-11T01:09:22.777Z,101088.06
2022-08-11T01:11:55.269Z,101090.28
2022-08-11T01:14:41.745Z,101083.09
2022-08-11T01:17:27.185Z,101090.28
2022-08-11T01:20:47.009Z,101090.56
2022-08-11T01:23:03.610Z,101085.41
2022-08-11T01:25:34.642Z,101067.44
2022-08-11T01:28:40.527Z,101068.78
2022-08-11T01:31:20.224Z,101068.50
2022-08-11T01:33:50.522Z,101060.97
2022-08-11T01:36:36.487Z,101054.50
2022-08-11T01:39:22.178Z,101044.59
2022-08-11T01:42:24.159Z,101033.09
2022-08-11T01:45:03.692Z,101022.59
2022-08-11T01:47:53.459Z,101021.00
2022-08-11T01:50:39.534Z,101011.94
2022-08-11T01:53:21.731Z,101009.09
2022-08-11T01:56:08.870Z,101009.81
2022-08-11T01:58:44.048Z,101016.00
2022-08-11T02:01:30.350Z,101010.91
2022-08-11T02:03:57.472Z,101018.50
2022-08-11T02:06:55.597Z,101012.94
2022-08-11T02:09:49.219Z,101012.78
2022-08-11T02:12:42.311Z,101011.53
2022-08-11T02:15:22.274Z,101011.22
2022-08-11T02:18:08.004Z,101013.75
2022-08-11T02:21:00.146Z,101006.41
2022-08-11T02:24:05.836Z,100998.06
2022-08-11T02:26:34.548Z,100999.78
2022-08-11T02:29:10.631Z,101000.53
2022-08-11T02:32:14.210Z,100996.03
2022-08-11T02:34:43.612Z,101007.03
2022-08-11T02:37:27.281Z,101000.94
2022-08-11T02:40:05.059Z,101001.03
2022-08-11T02:42:38.590Z,101002.31
2022-08-11T02:45:16.300Z,101007.97
2022-08-11T02:48:25.123Z,101004.44
2022-08-11T02:51:13.027Z,101003.81
2022-08-11T02:53:54.445Z,101007.22
2022-08-11T02:56:44.722Z,101009.44
2022-08-11T02:59:38.967Z,101006.94
2022-08-11T03:02:22.735Z,100998.53
2022-08-11T03:04:51.405Z,101005.97
2022-08-11T03:07:28.081Z,101004.34
2022-08-11T03:10:07.136Z,101002.25
2022-08-11T03:12:59.615Z,101008.69
2022-08-11T03:15:50.719Z,101002.28
2022-08-11T03:18:25.432Z,100998.66
2022-08-11T03:21:02.977Z,100996.81
2022-08-11T03:23:33.742Z,101003.03
2022-08-11T03:26:19.570Z,100998.16
2022-08-11T03:29:06.673Z,100999.75
2022-08-11T03:32:02.009Z,100989.53
2022-08-11T03:34:31.363Z,100993.84
2022-08-11T03:37:50.576Z,100991.38
2022-08-11T03:40:54.890Z,100990.78
2022-08-11T03:43:28.881Z,100999.56
2022-08-11T03:45:57.383Z,100992.38
2022-08-11T03:48:39.851Z,100991.63
2022-08-11T03:51:19.228Z,100995.75
2022-08-11T03:53:58.759Z,100990.28
2022-08-11T03:56:44.718Z,100985.72
2022-08-11T03:59:30.629Z,100989.69
2022-08-11T04:02:03.787Z,100992.53
2022-08-11T04:04:31.065Z,100990.06
2022-08-11T04:07:04.117Z,100989.88
2022-08-11T04:09:37.565Z,100985.44
2022-08-11T04:12:07.552Z,100986.97
2022-08-11T04:15:03.580Z,100983.97
2022-08-11T04:17:47.094Z,100982.09
2022-08-11T04:20:22.985Z,100989.41
2022-08-11T04:22:50.111Z,100988.09
2022-08-11T04:25:20.309Z,100991.69
2022-08-11T04:27:50.490Z,100982.53
2022-08-11T04:30:23.280Z,100982.25
2022-08-11T04:33:18.540Z,100980.28
2022-08-11T04:36:04.195Z,100984.72
2022-08-11T04:38:38.281Z,100986.25
2022-08-11T04:41:26.805Z,100984.84
2022-08-11T04:44:05.701Z,100990.75
2022-08-11T04:46:57.058Z,100991.09
2022-08-11T04:49:55.286Z,100988.59
2022-08-11T04:52:59.177Z,100998.16
2022-08-11T04:55:51.615Z,100992.13
2022-08-11T04:58:56.896Z,100992.34
2022-08-11T05:01:42.320Z,101007.22
2022-08-11T05:04:47.060Z,101009.81
2022-08-11T05:07:14.290Z,101018.84
2022-08-11T05:10:04.563Z,101016.84
2022-08-11T05:12:41.328Z,101016.75
2022-08-11T05:15:31.276Z,101015.25
2022-08-11T05:18:35.744Z,101013.66
2022-08-11T05:21:29.205Z,101006.88
2022-08-11T05:24:22.094Z,101012.31
2022-08-11T05:27:13.306Z,101014.53
2022-08-11T05:30:16.635Z,101014.34
2022-08-11T05:33:04.962Z,101009.38
2022-08-11T05:36:01.567Z,101013.59
2022-08-11T05:38:45.990Z,101015.19
2022-08-11T05:41:33.048Z,101015.91
2022-08-11T05:44:22.327Z,101017.88
2022-08-11T05:47:09.616Z,101027.44
2022-08-11T05:49:56.683Z,101018.38
2022-08-11T05:52:48.993Z,101008.03
2022-08-11T05:55:35.392Z,101010.56
2022-08-11T05:58:18.697Z,101009.22
2022-08-11T06:00:46.478Z,101015.88
2022-08-11T06:03:25.514Z,101016.75
2022-08-11T06:05:54.120Z,101013.50
2022-08-11T06:08:28.501Z,101015.00
2022-08-11T06:11:00.257Z,101012.31
2022-08-11T06:13:27.720Z,101001.50
2022-08-11T06:15:56.061Z,101016.91
2022-08-11T06:18:23.689Z,101010.03
2022-08-11T06:20:52.741Z,101007.84
2022-08-11T06:23:23.155Z,101014.81
2022-08-11T06:25:52.133Z,101011.63
2022-08-11T06:28:21.377Z,101007.91
2022-08-11T06:30:49.160Z,101009.34
2022-08-11T06:33:29.611Z,101013.28
2022-08-11T06:36:15.366Z,101008.94
2022-08-11T06:39:02.586Z,101014.34
2022-08-11T06:41:34.383Z,101010.72
2022-08-11T06:44:13.724Z,101011.06
2022-08-11T06:46:42.714Z,101011.38
2022-08-11T06:49:31.179Z,101007.84
2022-08-11T06:52:07.182Z,101009.03
2022-08-11T06:54:57.214Z,100998.72
2022-08-11T06:57:43.020Z,100998.19
2022-08-11T07:00:28.754Z,100997.91
2022-08-11T07:02:56.219Z,100999.78
2022-08-11T07:05:26.232Z,101005.56
2022-08-11T07:08:49.100Z,101004.09
2022-08-11T07:11:53.720Z,101010.72
2022-08-11T07:14:43.137Z,101004.69
2022-08-11T07:17:14.195Z,100999.50
2022-08-11T07:20:01.963Z,100989.13
2022-08-11T07:22:50.064Z,101000.53
2022-08-11T07:25:35.877Z,100992.16
2022-08-11T07:28:25.737Z,100990.25
2022-08-11T07:31:02.044Z,101001.66
2022-08-11T07:34:07.785Z,100994.34
2022-08-11T07:36:28.602Z,100996.91
2022-08-11T07:38:57.435Z,100993.59
2022-08-11T07:41:25.979Z,100993.59
2022-08-11T07:44:09.095Z,100993.13
2022-08-11T07:47:00.891Z,100993.47
2022-08-11T07:49:48.201Z,100987.25
2022-08-11T07:52:32.176Z,100989.72
2022-08-11T07:55:00.827Z,100988.41
2022-08-11T07:58:14.251Z,100991.69
2022-08-11T08:00:56.497Z,100991.22
2022-08-11T08:03:54.094Z,100988.94
2022-08-11T08:06:41.776Z,100988.25
2022-08-11T08:09:28.765Z,100985.34
2022-08-11T08:12:18.715Z,100992.50
2022-08-11T08:15:04.520Z,100985.28
2022-08-11T08:18:08.328Z,100987.19
2022-08-11T08:20:38.979Z,100990.13
2022-08-11T08:23:06.681Z,100986.34
2022-08-11T08:25:35.292Z,100984.00
2022-08-11T08:28:05.630Z,100990.03
2022-08-11T08:30:47.855Z,100988.78
2022-08-11T08:33:17.636Z,100982.25
2022-08-11T08:38:29.839Z,100980.56
2022-08-11T08:40:57.419Z,100980.31
2022-08-11T08:43:25.273Z,100989.06
2022-08-11T08:45:55.793Z,100990.75
2022-08-11T08:48:24.723Z,100991.75
2022-08-11T08:51:13.514Z,100996.25
2022-08-11T08:53:52.402Z,100987.06
2022-08-11T08:56:25.087Z,100981.63
2022-08-11T08:58:52.437Z,100981.19
2022-08-11T09:01:22.291Z,100990.50
2022-08-11T09:04:05.355Z,100984.38
2022-08-11T09:06:40.272Z,100976.78
2022-08-11T09:09:08.993Z,100983.13
2022-08-11T09:11:55.520Z,100983.41
2022-08-11T09:14:25.026Z,100985.31
2022-08-11T09:16:53.075Z,100972.97
2022-08-11T09:19:21.136Z,100967.22
2022-08-11T09:22:08.038Z,100971.69
2022-08-11T09:24:55.568Z,100973.09
2022-08-11T09:27:23.098Z,100971.34
2022-08-11T09:29:51.029Z,100976.63
2022-08-11T09:32:22.374Z,100960.38
2022-08-11T09:34:51.990Z,100956.50
2022-08-11T09:37:55.815Z,100963.56
2022-08-11T09:40:30.954Z,100956.94
2022-08-11T09:43:17.179Z,100955.53
2022-08-11T09:45:51.578Z,100961.56
2022-08-11T09:48:19.924Z,100952.97
2022-08-11T09:50:51.793Z,100955.31
2022-08-11T09:53:35.731Z,100959.31
2022-08-11T09:56:30.445Z,100952.47
2022-08-11T09:58:58.225Z,100944.44
2022-08-11T10:01:28.245Z,100935.94
2022-08-11T10:03:58.802Z,100943.88
2022-08-11T10:06:47.535Z,100941.53
2022-08-11T10:09:19.808Z,100933.75
2022-08-11T10:11:57.782Z,100933.63
2022-08-11T10:14:45.067Z,100931.50
2022-08-11T10:17:13.664Z,100934.00
2022-08-11T10:19:42.366Z,100930.06
2022-08-11T10:22:28.142Z,100920.22
2022-08-11T10:25:19.668Z,100924.41
2022-08-11T10:28:28.547Z,100915.56
2022-08-11T10:30:57.442Z,100914.59
2022-08-11T10:33:53.364Z,100912.94
2022-08-11T10:36:27.424Z,100905.94
2022-08-11T10:38:55.786Z,100907.63
2022-08-11T10:42:08.508Z,100892.94
2022-08-11T10:44:33.809Z,100897.91
2022-08-11T10:47:20.272Z,100895.00
2022-08-11T10:50:07.843Z,100887.69
2022-08-11T10:52:54.619Z,100884.06
2022-08-11T10:55:41.533Z,100888.16
2022-08-11T10:58:28.209Z,100890.50
2022-08-11T11:00:58.985Z,100880.53
2022-08-11T11:03:27.933Z,100884.81
2022-08-11T11:06:27.584Z,100882.97
2022-08-11T11:08:52.914Z,100881.09
2022-08-11T11:11:45.132Z,100867.22
2022-08-11T11:14:34.805Z,100870.50
2022-08-11T11:17:09.396Z,100873.06
2022-08-11T11:19:38.789Z,100872.00
2022-08-11T11:22:25.231Z,100870.50
2022-08-11T11:25:00.559Z,100871.22
2022-08-11T11:27:31.234Z,100874.09
2022-08-11T11:30:08.760Z,100868.44
2022-08-11T11:32:35.968Z,100855.72
2022-08-11T11:35:03.133Z,100866.47
2022-08-11T11:37:32.335Z,100854.56
2022-08-11T11:40:01.755Z,100851.69
2022-08-11T11:42:30.031Z,100861.78
2022-08-11T11:45:00.483Z,100853.44
2022-08-11T11:47:29.770Z,100857.28
2022-08-11T11:49:57.236Z,100848.72
2022-08-11T11:52:24.945Z,100840.75
2022-08-11T11:54:55.072Z,100840.50
2022-08-11T11:57:41.619Z,100838.16
2022-08-11T12:00:44.745Z,100841.75
2022-08-11T12:03:12.710Z,100835.38
2022-08-11T12:05:42.201Z,100831.00
2022-08-11T12:08:23.402Z,100830.03
2022-08-11T12:11:21.134Z,100823.75
2022-08-11T12:13:50.412Z,100824.25
2022-08-11T12:16:33.349Z,100821.91
2022-08-11T12:19:11.918Z,100811.53
2022-08-11T12:22:01.163Z,100819.28
2022-08-11T12:24:51.061Z,100805.94
2022-08-11T12:27:24.228Z,100801.09
2022-08-11T12:30:00.354Z,100806.03
2022-08-11T12:32:28.993Z,100801.75
2022-08-11T12:34:58.025Z,100804.00
2022-08-11T12:38:10.664Z,100801.94
2022-08-11T12:41:15.094Z,100794.91
2022-08-11T12:44:04.759Z,100800.22
2022-08-11T12:46:33.775Z,100781.88
2022-08-11T12:49:23.579Z,100784.78
2022-08-11T12:52:14.407Z,100786.69
2022-08-11T12:54:57.455Z,100773.25
2022-08-11T12:57:46.602Z,100782.22
2022-08-11T13:00:32.885Z,100774.47
2022-08-11T13:03:19.413Z,100768.97
2022-08-11T13:05:47.662Z,100765.88
2022-08-11T13:08:15.718Z,100764.34
2022-08-11T13:11:02.224Z,100760.06
2022-08-11T13:13:55.742Z,100758.16
2022-08-11T13:16:17.820Z,100754.38
2022-08-11T13:18:45.245Z,100742.16
2022-08-11T13:21:20.741Z,100739.22
2022-08-11T13:23:59.963Z,100734.94
2022-08-11T13:26:46.620Z,100732.56
2022-08-11T13:29:20.545Z,100733.22
2022-08-11T13:31:48.632Z,100729.44
2022-08-11T13:34:17.803Z,100729.81
2022-08-11T13:36:45.418Z,100732.38
2022-08-11T13:39:13.491Z,100727.56
2022-08-11T13:41:42.299Z,100722.56
2022-08-11T13:44:10.662Z,100727.72
2022-08-11T13:46:39.171Z,100722.22
2022-08-11T13:49:09.208Z,100716.25
2022-08-11T13:51:38.362Z,100709.00
2022-08-11T13:54:07.370Z,100711.59
2022-08-11T13:56:36.673Z,100712.59
2022-08-11T13:59:04.335Z,100705.06
2022-08-11T14:02:20.286Z,100697.69
2022-08-11T14:04:33.420Z,100691.81
2022-08-11T14:07:03.371Z,100700.06
2022-08-11T14:09:35.117Z,100691.16
2022-08-11T14:12:24.537Z,100688.72
2022-08-11T14:15:08.559Z,100681.50
2022-08-11T14:17:49.046Z,100687.03
2022-08-11T14:20:39.012Z,100678.06
2022-08-11T14:23:05.384Z,100679.81
2022-08-11T14:26:00.841Z,100682.38
2022-08-11T14:28:31.849Z,100673.97
2022-08-11T14:31:02.929Z,100669.50
2022-08-11T14:33:38.162Z,100666.91
2022-08-11T14:36:23.115Z,100668.47
2022-08-11T14:38:50.883Z,100668.13
2022-08-11T14:41:37.377Z,100662.78
2022-08-11T14:44:43.912Z,100664.88
2022-08-11T14:47:23.843Z,100660.91
2022-08-11T14:50:10.339Z,100652.66
2022-08-11T14:52:43.382Z,100651.63
2022-08-11T14:55:30.139Z,100652.31
2022-08-11T14:57:58.169Z,100644.22
2022-08-11T15:00:26.056Z,100641.66
2022-08-11T15:03:12.942Z,100645.81
2022-08-11T15:05:57.036Z,100639.09
2022-08-11T15:08:48.318Z,100642.88
2022-08-11T15:11:35.515Z,100630.13
2022-08-11T15:14:03.741Z,100631.88
2022-08-11T15:16:49.632Z,100631.53
2022-08-11T15:19:21.252Z,100614.00
2022-08-11T15:22:08.249Z,100626.38
2022-08-11T15:24:36.651Z,100622.41
2022-08-11T15:27:29.860Z,100621.38
2022-08-11T15:30:32.483Z,100617.41
2022-08-11T15:33:25.363Z,100616.06
2022-08-11T15:36:11.690Z,100611.25
2022-08-11T15:38:44.485Z,100612.63
2022-08-11T15:41:34.018Z,100607.13
2022-08-11T15:44:44.517Z,100606.09
2022-08-11T15:47:14.313Z,100612.13
2022-08-11T15:50:11.392Z,100598.22
2022-08-11T15:52:34.718Z,100599.75
2022-08-11T15:55:06.266Z,100600.28
2022-08-11T15:57:55.470Z,100600.78
2022-08-11T16:00:41.668Z,100605.94
2022-08-11T16:03:54.388Z,100594.25
2022-08-11T16:06:16.437Z,100604.22
2022-08-11T16:08:45.080Z,100597.69
2022-08-11T16:11:13.429Z,100598.03
2022-08-11T16:13:40.697Z,100603.03
2022-08-11T16:16:14.618Z,100596.84
2022-08-11T16:18:53.940Z,100604.06
2022-08-11T16:21:33.798Z,100601.50
2022-08-11T16:24:04.921Z,100594.25
2022-08-11T16:27:07.646Z,100586.19
2022-08-11T16:29:23.674Z,100583.13
2022-08-11T16:32:11.516Z,100591.19
2022-08-11T16:34:57.942Z,100586.88
2022-08-11T16:37:44.476Z,100589.25
2022-08-11T16:40:12.227Z,100590.47
2022-08-11T16:43:05.288Z,100591.31
2022-08-11T16:45:58.515Z,100591.50
2022-08-11T16:48:37.252Z,100594.75
2022-08-11T16:51:10.523Z,100596.63
2022-08-11T16:54:03.498Z,100591.13
2022-08-11T16:56:43.575Z,100592.84
2022-08-11T16:59:16.957Z,100596.81
2022-08-11T17:01:47.867Z,100599.38
2022-08-11T17:04:53.816Z,100603.50
2022-08-11T17:07:43.157Z,100601.63
2022-08-11T17:10:53.396Z,100609.00
2022-08-11T17:13:23.878Z,100615.16
2022-08-11T17:16:08.663Z,100608.09
2022-08-11T17:18:40.796Z,100614.25
2022-08-11T17:21:12.664Z,100606.19
2022-08-11T17:23:47.481Z,100613.72
2022-08-11T17:26:16.766Z,100614.25
2022-08-11T17:28:44.898Z,100622.78
2022-08-11T17:31:32.873Z,100620.38
2022-08-11T17:34:18.864Z,100626.88
2022-08-11T17:36:47.197Z,100619.84
2022-08-11T17:39:15.045Z,100624.47
2022-08-11T17:42:02.170Z,100630.28
2022-08-11T17:44:49.281Z,100627.88
2022-08-11T17:47:36.233Z,100623.59
2022-08-11T17:50:09.495Z,100624.94
2022-08-11T17:53:03.722Z,100625.97
2022-08-11T17:55:53.382Z,100632.81
2022-08-11T17:58:40.251Z,100629.84
2022-08-11T18:01:10.035Z,100625.41
2022-08-11T18:03:41.793Z,100632.09
2022-08-11T18:06:33.503Z,100632.72
2022-08-11T18:09:20.114Z,100637.13
2022-08-11T18:12:11.714Z,100635.81
2022-08-11T18:14:59.342Z,100636.44
2022-08-11T18:17:45.359Z,100642.78
2022-08-11T18:20:31.113Z,100635.38
2022-08-11T18:23:20.035Z,100633.28
2022-08-11T18:26:07.693Z,100632.72
2022-08-11T18:29:01.311Z,100636.66
2022-08-11T18:31:48.824Z,100629.44
2022-08-11T18:34:36.281Z,100634.06
2022-08-11T18:37:29.460Z,100628.50
2022-08-11T18:40:18.106Z,100630.69
2022-08-11T18:43:05.598Z,100632.88
2022-08-11T18:45:57.483Z,100636.53
2022-08-11T18:48:55.580Z,100639.13
2022-08-11T18:51:42.434Z,100644.56
2022-08-11T18:54:30.586Z,100645.34
2022-08-11T18:57:18.683Z,100641.34
2022-08-11T19:00:05.720Z,100639.88
2022-08-11T19:02:53.987Z,100644.16
2022-08-11T19:06:32.422Z,100643.84
2022-08-11T19:08:47.840Z,100637.81
2022-08-11T19:11:33.951Z,100643.06
2022-08-11T19:14:20.806Z,100643.41
2022-08-11T19:17:08.258Z,100647.88
2022-08-11T19:19:55.873Z,100648.59
2022-08-11T19:22:42.698Z,100646.69
2022-08-11T19:25:29.357Z,100653.13
2022-08-11T19:28:17.242Z,100645.59
2022-08-11T19:31:03.646Z,100646.78
2022-08-11T19:34:02.457Z,100650.91
2022-08-11T19:36:57.099Z,100641.91
2022-08-11T19:39:44.094Z,100643.81
2022-08-11T19:42:31.399Z,100646.53
2022-08-11T19:45:18.353Z,100647.47
2022-08-11T19:48:30.025Z,100646.63
2022-08-11T19:51:11.149Z,100656.41
2022-08-11T19:53:57.779Z,100650.38
2022-08-11T19:56:44.113Z,100651.69
2022-08-11T19:59:29.951Z,100666.41
2022-08-11T20:02:15.969Z,100660.69
2022-08-11T20:05:02.316Z,100671.19
2022-08-11T20:07:48.666Z,100664.69
2022-08-11T20:10:36.617Z,100663.13
2022-08-11T20:13:24.727Z,100669.06
2022-08-11T20:16:13.154Z,100662.81
2022-08-11T20:18:59.910Z,100667.19
2022-08-11T20:21:46.760Z,100670.16
2022-08-11T20:24:34.112Z,100669.84
2022-08-11T20:27:24.571Z,100671.25
2022-08-11T20:30:12.383Z,100675.56
2022-08-11T20:32:59.265Z,100677.69
2022-08-11T20:35:45.832Z,100688.06
2022-08-11T20:38:33.727Z,100676.44
2022-08-11T20:41:20.533Z,100680.72
2022-08-11T20:44:09.178Z,100672.06
2022-08-11T20:47:00.042Z,100673.50
2022-08-11T20:49:53.740Z,100668.28
2022-08-11T20:52:47.540Z,100667.94
2022-08-11T20:55:51.205Z,100657.47
2022-08-11T20:59:13.334Z,100673.75
2022-08-11T21:01:47.209Z,100680.44
2022-08-11T21:04:37.933Z,100680.53
2022-08-11T21:07:41.356Z,100688.28
2022-08-11T21:10:28.927Z,100686.63
2022-08-11T21:13:26.384Z,100689.31
2022-08-11T21:16:26.207Z,100703.69
2022-08-11T21:20:00.094Z,100699.09
2022-08-11T21:22:42.399Z,100707.69
2022-08-11T21:25:45.997Z,100727.53
2022-08-11T21:28:33.180Z,100735.28
2022-08-11T21:31:22.563Z,100738.03
2022-08-11T21:34:09.503Z,100748.94
2022-08-11T21:36:55.573Z,100752.88
2022-08-11T21:39:42.486Z,100765.91
2022-08-11T21:42:29.097Z,100772.25
2022-08-11T21:45:15.446Z,100777.88
2022-08-11T21:48:02.876Z,100788.66
2022-08-11T21:50:48.745Z,100800.16
2022-08-11T21:53:34.962Z,100823.94
2022-08-11T21:56:22.017Z,100830.13
2022-08-11T21:59:12.735Z,100841.69
2022-08-11T22:01:58.852Z,100862.16
2022-08-11T22:04:44.726Z,100861.34
2022-08-11T22:07:30.575Z,100860.84
2022-08-11T22:10:35.959Z,100852.81
2022-08-11T22:13:26.312Z,100845.75
2022-08-11T22:16:12.736Z,100836.38
2022-08-11T22:18:58.722Z,100830.66
2022-08-11T22:22:02.446Z,100835.84
2022-08-11T22:24:51.366Z,100824.34
2022-08-11T22:27:37.782Z,100822.25
2022-08-11T22:30:27.163Z,100814.53
2022-08-11T22:33:15.046Z,100809.06
2022-08-11T22:36:01.946Z,100795.59
2022-08-11T22:38:49.753Z,100800.47
2022-08-11T22:41:35.937Z,100796.09
2022-08-11T22:44:22.425Z,100799.47
2022-08-11T22:47:09.685Z,100820.44
2022-08-11T22:49:58.544Z,100801.78
2022-08-11T22:52:46.543Z,100785.09
2022-08-11T22:55:33.149Z,100792.78
2022-08-11T22:58:20.497Z,100802.19
2022-08-11T23:01:07.028Z,100789.66
2022-08-11T23:03:53.934Z,100790.88
2022-08-11T23:06:40.206Z,100792.50
2022-08-11T23:09:26.995Z,100803.84
2022-08-11T23:12:13.833Z,100815.00
2022-08-11T23:15:00.202Z,100809.59
2022-08-11T23:17:46.999Z,100797.91
2022-08-11T23:20:40.423Z,100784.00
2022-08-11T23:23:39.381Z,100777.31
2022-08-11T23:26:25.476Z,100765.06
2022-08-11T23:29:11.869Z,100758.13
2022-08-11T23:31:57.908Z,100762.34
2022-08-11T23:35:04.667Z,100748.53
2022-08-11T23:37:52.779Z,100747.16
2022-08-11T23:40:38.522Z,100725.31
2022-08-11T23:43:24.320Z,100720.03
2022-08-11T23:46:10.342Z,100706.09
2022-08-11T23:48:56.869Z,100699.41
2022-08-11T23:51:43.753Z,100699.78
2022-08-11T23:54:36.462Z,100718.03
2022-08-11T23:57:23.390Z,100726.00
